Aeroporto :
LOGIN :

Iscrizione | Disclaimer

   EN    FR    IT 

 










Sommario :    VFR   VFR Marginale   IFR   IFR Intensivo   IFR Molto Intensivo
Visibilità : 
Base nubi : 
>= 8 km
>= 3000ft
5 / 8 km
1000 / 3000 ft
1500m / 5 km
500 / 1000 ft
800 / 1500m
200 / 500 ft
< 800m
< 200 ft
Simboli :   Temporali  Nebbia  Neve Forte  Precipitazioni Forti  Vento > 20 kt
SIGMETs :   Varie  Temporali  Ghiacco  Turbolenza  Onda orograficha  Ceneri Vulcaniche






- Altitudine del aeroporto : 70 ft
- Codice IATA : LEI


LEAM - Almeria

ULTIMO METAR :
  • 061800Z 05012KT CAVOK 16/10 Q1020

METARs OBSOLETI :
  • 061730Z 06008KT 9999 FEW030 16/10 Q1020
  • 061700Z 05010KT 9999 FEW030 16/10 Q1019
  • 061630Z 06012KT 9999 FEW030 16/10 Q1019
  • 061600Z 07017KT 9999 FEW030 17/10 Q1019
  • 061530Z 08018KT 9999 FEW030 17/10 Q1019
  • 061500Z 07016KT 9999 FEW040 18/10 Q1018

TAF TAF LEAM
Valido dal 06 a 15 ore il 07 a 15 ore UTC


061400Z 0615/0715 06015KT 9999 FEW040 TX18/0714Z TN12/0706Z
PROB40
TEMPO 0615/0620 06022G34KT
BECMG 0618/0621 35008KT



MetMap, La meteo Aeronautica in un colpo d'occhio ! - Copyright ORBIFLY Dicembre 2007 - Disclaimer

ORBIFLY MET'MAP TEAM :

Programmazione e sviluppo : Alexandra Zaïnal
Concezione : Baudouin d'Aumeries
Aiuto per la programmazione : Marc-Olivier Méhu
Supporto tecnico e logistico : Manuel Goepfert
Aiuto per la traduzione : Arnaldo La Scala

Contatto : metmap@orbifly.com




FONTI E CREDITI :

   NOAA